sensor_id;sensor_type;location;lat;lon;timestamp;P1;P2;P0
70197;PMS5003;57582;-34.876;138.628;2023-07-13T00:01:29;4.33;1.90;0.80
70197;PMS5003;57582;-34.876;138.628;2023-07-13T00:04:29;0.07;0.07;0.00
70197;PMS5003;57582;-34.876;138.628;2023-07-13T00:07:29;2.07;0.73;0.10
70197;PMS5003;57582;-34.876;138.628;2023-07-13T00:10:28;2.63;2.13;0.70
70197;PMS5003;57582;-34.876;138.628;2023-07-13T00:13:29;1.20;1.00;0.50
70197;PMS5003;57582;-34.876;138.628;2023-07-13T00:16:29;1.33;1.30;0.00
70197;PMS5003;57582;-34.876;138.628;2023-07-13T00:19:29;0.93;0.93;0.20
70197;PMS5003;57582;-34.876;138.628;2023-07-13T00:22:28;1.07;0.87;0.13
70197;PMS5003;57582;-34.876;138.628;2023-07-13T00:25:28;1.73;1.07;0.23
70197;PMS5003;57582;-34.876;138.628;2023-07-13T00:28:29;1.97;1.00;0.07
70197;PMS5003;57582;-34.876;138.628;2023-07-13T00:31:30;1.30;1.30;0.87
70197;PMS5003;57582;-34.876;138.628;2023-07-13T00:34:28;0.60;0.10;0.00
70197;PMS5003;57582;-34.876;138.628;2023-07-13T00:37:29;0.83;0.60;0.13
70197;PMS5003;57582;-34.876;138.628;2023-07-13T00:40:29;1.40;1.00;0.23
70197;PMS5003;57582;-34.876;138.628;2023-07-13T00:43:30;0.23;0.23;0.00
70197;PMS5003;57582;-34.876;138.628;2023-07-13T00:46:31;1.13;0.50;0.00
70197;PMS5003;57582;-34.876;138.628;2023-07-13T00:49:31;0.03;0.03;0.00
70197;PMS5003;57582;-34.876;138.628;2023-07-13T00:52:29;1.23;1.23;0.53
70197;PMS5003;57582;-34.876;138.628;2023-07-13T00:55:29;1.60;0.80;0.00
70197;PMS5003;57582;-34.876;138.628;2023-07-13T00:58:29;1.80;1.57;0.40
70197;PMS5003;57582;-34.876;138.628;2023-07-13T01:01:28;1.63;1.30;0.07
70197;PMS5003;57582;-34.876;138.628;2023-07-13T01:04:29;2.17;0.97;0.00
70197;PMS5003;57582;-34.876;138.628;2023-07-13T01:07:29;1.73;1.07;0.17
70197;PMS5003;57582;-34.876;138.628;2023-07-13T01:10:28;3.00;1.37;0.00
70197;PMS5003;57582;-34.876;138.628;2023-07-13T01:13:28;0.80;0.10;0.00
70197;PMS5003;57582;-34.876;138.628;2023-07-13T01:16:32;0.43;0.03;0.00
70197;PMS5003;57582;-34.876;138.628;2023-07-13T01:22:29;0.80;0.80;0.00
70197;PMS5003;57582;-34.876;138.628;2023-07-13T01:25:28;1.73;0.37;0.10
70197;PMS5003;57582;-34.876;138.628;2023-07-13T01:28:29;1.20;1.20;0.30
70197;PMS5003;57582;-34.876;138.628;2023-07-13T01:31:29;0.77;0.77;0.00
70197;PMS5003;57582;-34.876;138.628;2023-07-13T01:34:28;2.57;1.57;0.00
70197;PMS5003;57582;-34.876;138.628;2023-07-13T01:37:29;1.30;0.97;0.10
70197;PMS5003;57582;-34.876;138.628;2023-07-13T01:40:29;1.60;1.00;0.47
70197;PMS5003;57582;-34.876;138.628;2023-07-13T01:43:29;0.30;0.00;0.00
70197;PMS5003;57582;-34.876;138.628;2023-07-13T01:46:29;1.30;0.83;0.00
70197;PMS5003;57582;-34.876;138.628;2023-07-13T01:49:29;1.43;0.37;0.07
70197;PMS5003;57582;-34.876;138.628;2023-07-13T01:52:29;0.90;0.07;0.00
70197;PMS5003;57582;-34.876;138.628;2023-07-13T01:55:30;1.63;1.63;0.10
70197;PMS5003;57582;-34.876;138.628;2023-07-13T01:58:28;2.03;1.23;0.60
70197;PMS5003;57582;-34.876;138.628;2023-07-13T02:01:29;1.53;1.50;0.03
70197;PMS5003;57582;-34.876;138.628;2023-07-13T02:04:29;1.90;1.50;0.67
70197;PMS5003;57582;-34.876;138.628;2023-07-13T02:07:29;0.77;0.63;0.33
70197;PMS5003;57582;-34.876;138.628;2023-07-13T02:10:28;1.47;0.87;0.00
70197;PMS5003;57582;-34.876;138.628;2023-07-13T02:13:28;1.00;1.00;0.00
70197;PMS5003;57582;-34.876;138.628;2023-07-13T02:16:30;0.80;0.80;0.00
70197;PMS5003;57582;-34.876;138.628;2023-07-13T02:19:29;0.90;0.90;0.00
70197;PMS5003;57582;-34.876;138.628;2023-07-13T02:22:29;1.17;0.73;0.00
70197;PMS5003;57582;-34.876;138.628;2023-07-13T02:25:28;1.50;1.50;0.57
70197;PMS5003;57582;-34.876;138.628;2023-07-13T02:28:29;0.57;0.57;0.00
70197;PMS5003;57582;-34.876;138.628;2023-07-13T02:31:29;0.57;0.57;0.00
70197;PMS5003;57582;-34.876;138.628;2023-07-13T02:34:29;2.80;1.23;0.13
70197;PMS5003;57582;-34.876;138.628;2023-07-13T02:37:29;1.43;1.20;0.00
70197;PMS5003;57582;-34.876;138.628;2023-07-13T02:40:29;2.03;1.43;0.00
70197;PMS5003;57582;-34.876;138.628;2023-07-13T02:43:29;0.70;0.70;0.00
70197;PMS5003;57582;-34.876;138.628;2023-07-13T02:46:30;1.93;1.93;0.63
70197;PMS5003;57582;-34.876;138.628;2023-07-13T02:49:29;0.97;0.83;0.00
70197;PMS5003;57582;-34.876;138.628;2023-07-13T02:52:29;0.57;0.33;0.00
70197;PMS5003;57582;-34.876;138.628;2023-07-13T02:55:29;1.37;1.00;0.30
70197;PMS5003;57582;-34.876;138.628;2023-07-13T02:58:29;2.67;2.10;0.00
70197;PMS5003;57582;-34.876;138.628;2023-07-13T03:01:28;2.10;1.07;0.13
70197;PMS5003;57582;-34.876;138.628;2023-07-13T03:04:29;1.20;0.53;0.00
70197;PMS5003;57582;-34.876;138.628;2023-07-13T03:07:30;0.03;0.03;0.03
70197;PMS5003;57582;-34.876;138.628;2023-07-13T03:10:29;1.97;1.00;0.00
70197;PMS5003;57582;-34.876;138.628;2023-07-13T03:13:28;1.43;1.43;0.03
70197;PMS5003;57582;-34.876;138.628;2023-07-13T03:16:29;0.63;0.63;0.03
70197;PMS5003;57582;-34.876;138.628;2023-07-13T03:19:29;0.97;0.93;0.13
70197;PMS5003;57582;-34.876;138.628;2023-07-13T03:22:28;0.93;0.93;0.20
70197;PMS5003;57582;-34.876;138.628;2023-07-13T03:25:28;1.13;1.13;0.53
70197;PMS5003;57582;-34.876;138.628;2023-07-13T03:28:29;1.87;1.07;0.80
70197;PMS5003;57582;-34.876;138.628;2023-07-13T03:31:32;1.03;1.00;0.07
70197;PMS5003;57582;-34.876;138.628;2023-07-13T03:34:28;0.77;0.77;0.00
70197;PMS5003;57582;-34.876;138.628;2023-07-13T03:37:29;1.57;0.87;0.00
70197;PMS5003;57582;-34.876;138.628;2023-07-13T03:40:29;1.67;1.07;0.10
70197;PMS5003;57582;-34.876;138.628;2023-07-13T03:43:29;0.80;0.80;0.00
70197;PMS5003;57582;-34.876;138.628;2023-07-13T03:46:29;0.53;0.53;0.00
70197;PMS5003;57582;-34.876;138.628;2023-07-13T03:49:29;1.83;0.87;0.13
70197;PMS5003;57582;-34.876;138.628;2023-07-13T03:52:29;0.50;0.30;0.00
70197;PMS5003;57582;-34.876;138.628;2023-07-13T03:55:29;0.67;0.33;0.00
70197;PMS5003;57582;-34.876;138.628;2023-07-13T03:58:34;1.13;0.00;0.00
70197;PMS5003;57582;-34.876;138.628;2023-07-13T04:01:29;0.57;0.57;0.00
70197;PMS5003;57582;-34.876;138.628;2023-07-13T04:04:29;1.37;1.37;0.00
70197;PMS5003;57582;-34.876;138.628;2023-07-13T04:07:29;0.53;0.53;0.20
70197;PMS5003;57582;-34.876;138.628;2023-07-13T04:10:29;2.30;1.10;0.60
70197;PMS5003;57582;-34.876;138.628;2023-07-13T04:13:29;0.70;0.70;0.00
70197;PMS5003;57582;-34.876;138.628;2023-07-13T04:16:29;1.70;1.30;0.77
70197;PMS5003;57582;-34.876;138.628;2023-07-13T04:19:29;2.03;1.43;0.40
70197;PMS5003;57582;-34.876;138.628;2023-07-13T04:22:29;2.30;1.17;0.07
70197;PMS5003;57582;-34.876;138.628;2023-07-13T04:25:29;0.87;0.87;0.10
70197;PMS5003;57582;-34.876;138.628;2023-07-13T04:28:29;0.07;0.03;0.00
70197;PMS5003;57582;-34.876;138.628;2023-07-13T04:31:30;0.70;0.70;0.07
70197;PMS5003;57582;-34.876;138.628;2023-07-13T04:34:29;2.50;2.30;0.70
70197;PMS5003;57582;-34.876;138.628;2023-07-13T04:37:29;0.83;0.83;0.10
70197;PMS5003;57582;-34.876;138.628;2023-07-13T04:40:30;1.30;1.30;0.07
70197;PMS5003;57582;-34.876;138.628;2023-07-13T04:43:30;1.43;1.23;0.00
70197;PMS5003;57582;-34.876;138.628;2023-07-13T04:46:29;2.77;0.93;0.53
70197;PMS5003;57582;-34.876;138.628;2023-07-13T04:49:29;2.17;1.00;0.20
70197;PMS5003;57582;-34.876;138.628;2023-07-13T04:52:30;0.93;0.67;0.13
70197;PMS5003;57582;-34.876;138.628;2023-07-13T04:55:29;2.00;1.20;0.00
70197;PMS5003;57582;-34.876;138.628;2023-07-13T04:58:29;1.30;1.30;0.00
70197;PMS5003;57582;-34.876;138.628;2023-07-13T05:01:29;1.53;1.03;0.03
70197;PMS5003;57582;-34.876;138.628;2023-07-13T05:04:29;0.87;0.87;0.00
70197;PMS5003;57582;-34.876;138.628;2023-07-13T05:07:29;1.07;0.23;0.00
70197;PMS5003;57582;-34.876;138.628;2023-07-13T05:10:29;0.73;0.33;0.00
70197;PMS5003;57582;-34.876;138.628;2023-07-13T05:13:29;2.73;0.97;0.00
70197;PMS5003;57582;-34.876;138.628;2023-07-13T05:16:30;0.97;0.93;0.10
70197;PMS5003;57582;-34.876;138.628;2023-07-13T05:19:30;1.47;1.47;0.70
70197;PMS5003;57582;-34.876;138.628;2023-07-13T05:22:29;1.40;1.17;0.23
70197;PMS5003;57582;-34.876;138.628;2023-07-13T05:25:29;1.13;0.67;0.00
70197;PMS5003;57582;-34.876;138.628;2023-07-13T05:28:31;0.40;0.40;0.00
70197;PMS5003;57582;-34.876;138.628;2023-07-13T05:31:29;0.17;0.17;0.00
70197;PMS5003;57582;-34.876;138.628;2023-07-13T05:34:29;1.30;0.10;0.00
70197;PMS5003;57582;-34.876;138.628;2023-07-13T05:37:29;1.20;0.87;0.03
70197;PMS5003;57582;-34.876;138.628;2023-07-13T05:40:29;0.67;0.67;0.00
70197;PMS5003;57582;-34.876;138.628;2023-07-13T05:43:30;1.07;1.00;0.00
70197;PMS5003;57582;-34.876;138.628;2023-07-13T05:46:29;0.87;0.33;0.10
70197;PMS5003;57582;-34.876;138.628;2023-07-13T05:49:30;3.30;1.00;0.23
70197;PMS5003;57582;-34.876;138.628;2023-07-13T05:52:29;0.87;0.63;0.03
70197;PMS5003;57582;-34.876;138.628;2023-07-13T05:55:29;2.07;0.57;0.57
70197;PMS5003;57582;-34.876;138.628;2023-07-13T05:58:29;0.90;0.00;0.00
70197;PMS5003;57582;-34.876;138.628;2023-07-13T06:01:29;0.47;0.43;0.27
70197;PMS5003;57582;-34.876;138.628;2023-07-13T06:04:29;1.73;1.10;0.00
70197;PMS5003;57582;-34.876;138.628;2023-07-13T06:07:29;0.97;0.63;0.10
70197;PMS5003;57582;-34.876;138.628;2023-07-13T06:10:29;0.47;0.00;0.00
70197;PMS5003;57582;-34.876;138.628;2023-07-13T06:13:29;1.07;1.07;0.10
70197;PMS5003;57582;-34.876;138.628;2023-07-13T06:16:29;0.27;0.27;0.00
70197;PMS5003;57582;-34.876;138.628;2023-07-13T06:19:29;1.20;0.83;0.00
70197;PMS5003;57582;-34.876;138.628;2023-07-13T06:22:29;1.47;0.10;0.00
70197;PMS5003;57582;-34.876;138.628;2023-07-13T06:25:29;0.00;0.00;0.00
70197;PMS5003;57582;-34.876;138.628;2023-07-13T06:28:30;0.70;0.70;0.00
70197;PMS5003;57582;-34.876;138.628;2023-07-13T06:31:29;1.20;0.37;0.00
70197;PMS5003;57582;-34.876;138.628;2023-07-13T06:34:29;1.50;0.70;0.00
70197;PMS5003;57582;-34.876;138.628;2023-07-13T06:37:29;0.60;0.37;0.00
70197;PMS5003;57582;-34.876;138.628;2023-07-13T06:40:30;0.57;0.00;0.00
70197;PMS5003;57582;-34.876;138.628;2023-07-13T06:43:29;0.30;0.30;0.00
70197;PMS5003;57582;-34.876;138.628;2023-07-13T06:46:29;0.03;0.03;0.00
70197;PMS5003;57582;-34.876;138.628;2023-07-13T06:49:29;0.90;0.90;0.30
70197;PMS5003;57582;-34.876;138.628;2023-07-13T06:52:29;0.27;0.27;0.00
70197;PMS5003;57582;-34.876;138.628;2023-07-13T06:55:29;0.77;0.43;0.00
70197;PMS5003;57582;-34.876;138.628;2023-07-13T06:58:29;1.27;1.27;0.17
70197;PMS5003;57582;-34.876;138.628;2023-07-13T07:01:29;2.33;1.80;0.47
70197;PMS5003;57582;-34.876;138.628;2023-07-13T07:04:29;1.63;1.63;0.00
70197;PMS5003;57582;-34.876;138.628;2023-07-13T07:07:29;2.20;1.40;0.00
70197;PMS5003;57582;-34.876;138.628;2023-07-13T07:10:30;0.90;0.57;0.00
70197;PMS5003;57582;-34.876;138.628;2023-07-13T07:13:29;1.70;0.80;0.00
70197;PMS5003;57582;-34.876;138.628;2023-07-13T07:16:29;0.87;0.40;0.00
70197;PMS5003;57582;-34.876;138.628;2023-07-13T07:19:30;1.67;0.90;0.00
70197;PMS5003;57582;-34.876;138.628;2023-07-13T07:22:30;2.07;1.83;1.00
70197;PMS5003;57582;-34.876;138.628;2023-07-13T07:25:29;3.87;3.67;2.47
70197;PMS5003;57582;-34.876;138.628;2023-07-13T07:28:29;1.00;1.00;0.10
70197;PMS5003;57582;-34.876;138.628;2023-07-13T07:31:29;1.53;0.50;0.03
70197;PMS5003;57582;-34.876;138.628;2023-07-13T07:34:30;1.10;0.50;0.00
70197;PMS5003;57582;-34.876;138.628;2023-07-13T07:37:29;1.47;0.97;0.00
70197;PMS5003;57582;-34.876;138.628;2023-07-13T07:40:30;2.60;1.00;0.37
70197;PMS5003;57582;-34.876;138.628;2023-07-13T07:43:29;1.80;1.10;0.00
70197;PMS5003;57582;-34.876;138.628;2023-07-13T07:46:30;1.87;1.27;0.10
70197;PMS5003;57582;-34.876;138.628;2023-07-13T07:49:29;1.70;1.70;0.00
70197;PMS5003;57582;-34.876;138.628;2023-07-13T07:52:29;1.83;0.90;0.03
70197;PMS5003;57582;-34.876;138.628;2023-07-13T07:55:29;1.60;1.60;0.27
70197;PMS5003;57582;-34.876;138.628;2023-07-13T07:58:29;2.30;0.90;0.00
70197;PMS5003;57582;-34.876;138.628;2023-07-13T08:01:29;1.20;0.80;0.47
70197;PMS5003;57582;-34.876;138.628;2023-07-13T08:04:29;2.73;1.90;0.90
70197;PMS5003;57582;-34.876;138.628;2023-07-13T08:07:31;1.53;1.03;0.23
70197;PMS5003;57582;-34.876;138.628;2023-07-13T08:10:29;1.87;1.17;0.67
70197;PMS5003;57582;-34.876;138.628;2023-07-13T08:13:29;3.33;2.13;0.40
70197;PMS5003;57582;-34.876;138.628;2023-07-13T08:16:29;9.90;7.23;2.53
70197;PMS5003;57582;-34.876;138.628;2023-07-13T08:19:30;15.33;12.67;4.83
70197;PMS5003;57582;-34.876;138.628;2023-07-13T08:22:29;7.70;6.63;3.00
70197;PMS5003;57582;-34.876;138.628;2023-07-13T08:25:29;3.93;3.93;1.60
70197;PMS5003;57582;-34.876;138.628;2023-07-13T08:28:30;2.90;2.90;1.40
70197;PMS5003;57582;-34.876;138.628;2023-07-13T08:31:30;2.47;1.67;0.87
70197;PMS5003;57582;-34.876;138.628;2023-07-13T08:34:29;2.33;2.33;1.10
70197;PMS5003;57582;-34.876;138.628;2023-07-13T08:37:29;1.67;1.23;0.23
70197;PMS5003;57582;-34.876;138.628;2023-07-13T08:40:29;2.03;2.03;0.70
70197;PMS5003;57582;-34.876;138.628;2023-07-13T08:43:35;3.97;2.70;1.50
70197;PMS5003;57582;-34.876;138.628;2023-07-13T08:46:36;2.77;2.73;1.17
70197;PMS5003;57582;-34.876;138.628;2023-07-13T08:49:29;3.97;2.23;1.00
70197;PMS5003;57582;-34.876;138.628;2023-07-13T08:52:36;3.33;2.20;1.13
70197;PMS5003;57582;-34.876;138.628;2023-07-13T08:55:33;2.97;2.97;1.07
70197;PMS5003;57582;-34.876;138.628;2023-07-13T08:58:30;2.27;2.27;0.80
70197;PMS5003;57582;-34.876;138.628;2023-07-13T09:01:34;2.77;1.83;0.97
70197;PMS5003;57582;-34.876;138.628;2023-07-13T09:04:35;4.33;4.10;2.17
70197;PMS5003;57582;-34.876;138.628;2023-07-13T09:07:39;5.90;5.77;3.10
70197;PMS5003;57582;-34.876;138.628;2023-07-13T09:13:40;7.87;7.10;4.67
70197;PMS5003;57582;-34.876;138.628;2023-07-13T09:16:30;11.27;11.27;6.70
70197;PMS5003;57582;-34.876;138.628;2023-07-13T09:19:33;118.20;107.37;65.37
70197;PMS5003;57582;-34.876;138.628;2023-07-13T09:22:33;155.93;144.17;85.50
70197;PMS5003;57582;-34.876;138.628;2023-07-13T09:25:31;8.93;7.97;4.87
70197;PMS5003;57582;-34.876;138.628;2023-07-13T09:28:37;4.60;4.40;2.80
70197;PMS5003;57582;-34.876;138.628;2023-07-13T09:31:34;7.43;4.87;3.17
70197;PMS5003;57582;-34.876;138.628;2023-07-13T09:34:30;2.03;2.03;1.03
70197;PMS5003;57582;-34.876;138.628;2023-07-13T09:37:31;1.43;1.43;0.70
70197;PMS5003;57582;-34.876;138.628;2023-07-13T09:43:30;1.77;1.33;0.47
70197;PMS5003;57582;-34.876;138.628;2023-07-13T09:46:29;2.60;2.60;1.43
70197;PMS5003;57582;-34.876;138.628;2023-07-13T09:49:33;1.70;1.03;0.10
70197;PMS5003;57582;-34.876;138.628;2023-07-13T09:52:47;2.57;2.57;1.77
70197;PMS5003;57582;-34.876;138.628;2023-07-13T09:55:31;32.47;29.30;20.67
70197;PMS5003;57582;-34.876;138.628;2023-07-13T09:58:30;26.73;26.03;14.90
70197;PMS5003;57582;-34.876;138.628;2023-07-13T10:01:35;31.73;30.93;22.40
70197;PMS5003;57582;-34.876;138.628;2023-07-13T10:04:33;32.87;29.90;19.73
70197;PMS5003;57582;-34.876;138.628;2023-07-13T10:07:31;13.60;12.47;8.43
70197;PMS5003;57582;-34.876;138.628;2023-07-13T10:10:29;12.70;11.60;7.93
70197;PMS5003;57582;-34.876;138.628;2023-07-13T10:13:33;5.93;5.50;3.30
70197;PMS5003;57582;-34.876;138.628;2023-07-13T10:16:32;1.87;1.87;0.83
70197;PMS5003;57582;-34.876;138.628;2023-07-13T10:19:32;2.93;2.27;1.27
70197;PMS5003;57582;-34.876;138.628;2023-07-13T10:25:33;21.63;20.93;12.10
70197;PMS5003;57582;-34.876;138.628;2023-07-13T10:28:35;17.07;16.13;9.03
70197;PMS5003;57582;-34.876;138.628;2023-07-13T10:31:31;11.67;11.27;7.30
70197;PMS5003;57582;-34.876;138.628;2023-07-13T10:34:30;42.20;34.90;18.67
70197;PMS5003;57582;-34.876;138.628;2023-07-13T10:37:39;36.13;29.47;17.07
70197;PMS5003;57582;-34.876;138.628;2023-07-13T10:40:34;207.97;185.67;94.40
70197;PMS5003;57582;-34.876;138.628;2023-07-13T10:43:37;176.87;160.83;80.17
70197;PMS5003;57582;-34.876;138.628;2023-07-13T10:46:30;133.50;109.17;55.60
70197;PMS5003;57582;-34.876;138.628;2023-07-13T10:49:31;242.03;207.33;92.67
70197;PMS5003;57582;-34.876;138.628;2023-07-13T10:53:02;77.40;60.10;35.53
70197;PMS5003;57582;-34.876;138.628;2023-07-13T10:55:33;54.60;46.10;31.30
70197;PMS5003;57582;-34.876;138.628;2023-07-13T10:58:34;30.67;29.27;22.80
70197;PMS5003;57582;-34.876;138.628;2023-07-13T11:01:40;6.60;6.60;4.33
70197;PMS5003;57582;-34.876;138.628;2023-07-13T11:04:40;3.43;3.43;2.30
70197;PMS5003;57582;-34.876;138.628;2023-07-13T11:07:31;23.60;20.20;14.37
70197;PMS5003;57582;-34.876;138.628;2023-07-13T11:10:59;23.57;22.83;17.00
70197;PMS5003;57582;-34.876;138.628;2023-07-13T11:16:39;29.70;27.33;20.10
70197;PMS5003;57582;-34.876;138.628;2023-07-13T11:19:40;22.87;22.07;15.43
70197;PMS5003;57582;-34.876;138.628;2023-07-13T11:22:44;27.00;26.00;15.43
70197;PMS5003;57582;-34.876;138.628;2023-07-13T11:25:31;32.23;30.40;20.57
70197;PMS5003;57582;-34.876;138.628;2023-07-13T11:28:31;24.70;21.73;14.87
70197;PMS5003;57582;-34.876;138.628;2023-07-13T11:31:33;25.00;22.87;15.97
70197;PMS5003;57582;-34.876;138.628;2023-07-13T11:34:34;13.57;12.13;9.07
70197;PMS5003;57582;-34.876;138.628;2023-07-13T11:37:30;18.33;16.60;12.67
70197;PMS5003;57582;-34.876;138.628;2023-07-13T11:40:30;1.57;1.57;0.90
70197;PMS5003;57582;-34.876;138.628;2023-07-13T11:43:30;1.60;1.60;0.70
70197;PMS5003;57582;-34.876;138.628;2023-07-13T11:46:29;2.17;1.80;0.70
70197;PMS5003;57582;-34.876;138.628;2023-07-13T11:49:31;2.00;2.00;0.97
70197;PMS5003;57582;-34.876;138.628;2023-07-13T11:52:35;2.57;2.03;0.73
70197;PMS5003;57582;-34.876;138.628;2023-07-13T11:55:30;1.77;1.77;0.60
70197;PMS5003;57582;-34.876;138.628;2023-07-13T11:58:29;2.13;1.00;0.30
70197;PMS5003;57582;-34.876;138.628;2023-07-13T12:01:31;1.00;1.00;0.40
70197;PMS5003;57582;-34.876;138.628;2023-07-13T12:04:32;2.80;2.00;0.70
70197;PMS5003;57582;-34.876;138.628;2023-07-13T12:07:32;1.20;1.20;0.37
70197;PMS5003;57582;-34.876;138.628;2023-07-13T12:10:30;1.27;0.60;0.17
70197;PMS5003;57582;-34.876;138.628;2023-07-13T12:13:29;1.17;0.73;0.33
70197;PMS5003;57582;-34.876;138.628;2023-07-13T12:16:32;2.17;1.57;0.73
70197;PMS5003;57582;-34.876;138.628;2023-07-13T12:19:30;1.77;1.30;0.47
70197;PMS5003;57582;-34.876;138.628;2023-07-13T12:22:29;1.83;1.30;0.00
70197;PMS5003;57582;-34.876;138.628;2023-07-13T12:25:29;2.80;2.80;1.03
70197;PMS5003;57582;-34.876;138.628;2023-07-13T12:31:41;1.87;1.60;0.33
70197;PMS5003;57582;-34.876;138.628;2023-07-13T12:34:30;3.10;2.57;0.73
70197;PMS5003;57582;-34.876;138.628;2023-07-13T12:37:34;3.73;3.20;1.37
70197;PMS5003;57582;-34.876;138.628;2023-07-13T12:40:34;0.93;0.93;0.80
70197;PMS5003;57582;-34.876;138.628;2023-07-13T12:43:34;1.13;1.13;0.57
70197;PMS5003;57582;-34.876;138.628;2023-07-13T12:46:29;0.70;0.70;0.27
70197;PMS5003;57582;-34.876;138.628;2023-07-13T12:49:31;2.17;1.47;0.97
70197;PMS5003;57582;-34.876;138.628;2023-07-13T12:52:32;1.53;1.53;1.00
70197;PMS5003;57582;-34.876;138.628;2023-07-13T12:55:30;1.33;1.33;0.23
70197;PMS5003;57582;-34.876;138.628;2023-07-13T12:58:36;1.53;1.53;0.10
70197;PMS5003;57582;-34.876;138.628;2023-07-13T13:01:34;1.03;0.83;0.00
70197;PMS5003;57582;-34.876;138.628;2023-07-13T13:04:30;1.37;0.77;0.10
70197;PMS5003;57582;-34.876;138.628;2023-07-13T13:07:30;2.27;1.57;0.60
70197;PMS5003;57582;-34.876;138.628;2023-07-13T13:10:29;1.37;1.37;0.20
70197;PMS5003;57582;-34.876;138.628;2023-07-13T13:13:29;0.83;0.83;0.40
70197;PMS5003;57582;-34.876;138.628;2023-07-13T13:16:32;0.53;0.53;0.00
70197;PMS5003;57582;-34.876;138.628;2023-07-13T13:19:30;2.37;1.47;0.53
70197;PMS5003;57582;-34.876;138.628;2023-07-13T13:22:30;1.03;1.03;0.00
70197;PMS5003;57582;-34.876;138.628;2023-07-13T13:25:30;0.13;0.13;0.00
70197;PMS5003;57582;-34.876;138.628;2023-07-13T13:28:31;0.27;0.27;0.00
70197;PMS5003;57582;-34.876;138.628;2023-07-13T13:31:31;0.93;0.83;0.00
70197;PMS5003;57582;-34.876;138.628;2023-07-13T13:34:30;0.87;0.87;0.20
70197;PMS5003;57582;-34.876;138.628;2023-07-13T13:37:30;0.97;0.87;0.00
70197;PMS5003;57582;-34.876;138.628;2023-07-13T13:40:30;0.00;0.00;0.00
70197;PMS5003;57582;-34.876;138.628;2023-07-13T13:43:32;1.07;1.07;0.00
70197;PMS5003;57582;-34.876;138.628;2023-07-13T13:46:30;66.23;50.90;28.70
70197;PMS5003;57582;-34.876;138.628;2023-07-13T13:49:30;95.40;80.23;44.57
70197;PMS5003;57582;-34.876;138.628;2023-07-13T13:52:30;101.17;91.63;58.60
70197;PMS5003;57582;-34.876;138.628;2023-07-13T13:55:30;83.20;68.77;46.17
70197;PMS5003;57582;-34.876;138.628;2023-07-13T13:58:30;46.30;40.93;28.77
70197;PMS5003;57582;-34.876;138.628;2023-07-13T14:01:31;77.07;65.00;47.07
70197;PMS5003;57582;-34.876;138.628;2023-07-13T14:04:30;88.53;79.87;61.40
70197;PMS5003;57582;-34.876;138.628;2023-07-13T14:07:30;71.30;57.07;43.83
70197;PMS5003;57582;-34.876;138.628;2023-07-13T14:10:30;37.83;34.40;23.83
70197;PMS5003;57582;-34.876;138.628;2023-07-13T14:13:36;20.23;18.37;10.10
70197;PMS5003;57582;-34.876;138.628;2023-07-13T14:16:32;63.90;54.17;35.73
70197;PMS5003;57582;-34.876;138.628;2023-07-13T14:19:30;42.17;37.70;22.87
70197;PMS5003;57582;-34.876;138.628;2023-07-13T14:22:29;37.43;33.67;20.57
70197;PMS5003;57582;-34.876;138.628;2023-07-13T14:25:30;14.50;12.87;8.50
70197;PMS5003;57582;-34.876;138.628;2023-07-13T14:28:31;5.93;5.93;4.17
70197;PMS5003;57582;-34.876;138.628;2023-07-13T14:31:30;7.93;7.93;5.67
70197;PMS5003;57582;-34.876;138.628;2023-07-13T14:34:30;25.30;23.17;15.57
70197;PMS5003;57582;-34.876;138.628;2023-07-13T14:37:30;18.00;15.23;10.17
70197;PMS5003;57582;-34.876;138.628;2023-07-13T14:40:31;7.90;7.40;5.43
70197;PMS5003;57582;-34.876;138.628;2023-07-13T14:43:30;11.70;11.70;8.33
70197;PMS5003;57582;-34.876;138.628;2023-07-13T14:46:32;10.10;10.10;7.90
70197;PMS5003;57582;-34.876;138.628;2023-07-13T14:49:33;26.50;24.90;18.13
70197;PMS5003;57582;-34.876;138.628;2023-07-13T14:52:30;29.33;24.73;16.93
70197;PMS5003;57582;-34.876;138.628;2023-07-13T14:55:31;27.60;25.80;18.33
70197;PMS5003;57582;-34.876;138.628;2023-07-13T14:58:30;3.73;2.70;1.53
70197;PMS5003;57582;-34.876;138.628;2023-07-13T15:01:30;8.07;5.97;3.80
70197;PMS5003;57582;-34.876;138.628;2023-07-13T15:04:30;10.33;10.33;7.10
70197;PMS5003;57582;-34.876;138.628;2023-07-13T15:07:30;4.53;3.53;2.63
70197;PMS5003;57582;-34.876;138.628;2023-07-13T15:10:32;11.73;10.03;6.83
70197;PMS5003;57582;-34.876;138.628;2023-07-13T15:13:30;7.20;7.20;5.10
70197;PMS5003;57582;-34.876;138.628;2023-07-13T15:16:30;26.67;25.13;18.63
70197;PMS5003;57582;-34.876;138.628;2023-07-13T15:19:31;25.33;24.63;19.50
70197;PMS5003;57582;-34.876;138.628;2023-07-13T15:22:30;5.37;5.37;3.13
70197;PMS5003;57582;-34.876;138.628;2023-07-13T15:25:32;2.97;2.33;1.67
70197;PMS5003;57582;-34.876;138.628;2023-07-13T15:28:31;0.00;0.00;0.00
70197;PMS5003;57582;-34.876;138.628;2023-07-13T15:31:30;0.80;0.80;0.37
70197;PMS5003;57582;-34.876;138.628;2023-07-13T15:34:30;2.03;2.03;0.73
70197;PMS5003;57582;-34.876;138.628;2023-07-13T15:37:30;2.10;2.10;1.20
70197;PMS5003;57582;-34.876;138.628;2023-07-13T15:40:30;1.03;1.03;0.43
70197;PMS5003;57582;-34.876;138.628;2023-07-13T15:43:32;3.87;3.87;3.07
70197;PMS5003;57582;-34.876;138.628;2023-07-13T15:46:30;1.37;1.37;1.03
70197;PMS5003;57582;-34.876;138.628;2023-07-13T15:49:30;1.50;0.63;0.00
70197;PMS5003;57582;-34.876;138.628;2023-07-13T15:52:31;1.47;1.07;0.00
70197;PMS5003;57582;-34.876;138.628;2023-07-13T15:55:31;1.33;1.20;0.53
70197;PMS5003;57582;-34.876;138.628;2023-07-13T15:58:30;1.73;1.73;0.87
70197;PMS5003;57582;-34.876;138.628;2023-07-13T16:01:32;5.37;4.20;3.33
70197;PMS5003;57582;-34.876;138.628;2023-07-13T16:04:30;3.53;2.30;1.43
70197;PMS5003;57582;-34.876;138.628;2023-07-13T16:07:30;2.73;2.73;1.83
70197;PMS5003;57582;-34.876;138.628;2023-07-13T16:13:30;0.80;0.80;0.07
70197;PMS5003;57582;-34.876;138.628;2023-07-13T16:16:33;1.03;1.03;0.53
70197;PMS5003;57582;-34.876;138.628;2023-07-13T16:19:31;1.57;1.17;0.63
70197;PMS5003;57582;-34.876;138.628;2023-07-13T16:22:30;4.33;2.33;1.93
70197;PMS5003;57582;-34.876;138.628;2023-07-13T16:25:30;3.90;3.70;2.93
70197;PMS5003;57582;-34.876;138.628;2023-07-13T16:28:30;1.70;1.70;0.97
70197;PMS5003;57582;-34.876;138.628;2023-07-13T16:31:31;0.70;0.70;0.33
70197;PMS5003;57582;-34.876;138.628;2023-07-13T16:34:32;3.83;2.33;1.50
70197;PMS5003;57582;-34.876;138.628;2023-07-13T16:37:30;1.77;1.07;0.30
70197;PMS5003;57582;-34.876;138.628;2023-07-13T16:40:32;1.93;1.80;1.33
70197;PMS5003;57582;-34.876;138.628;2023-07-13T16:43:30;1.30;1.30;0.63
70197;PMS5003;57582;-34.876;138.628;2023-07-13T16:46:30;0.87;0.80;0.00
70197;PMS5003;57582;-34.876;138.628;2023-07-13T16:49:34;0.13;0.13;0.00
70197;PMS5003;57582;-34.876;138.628;2023-07-13T16:52:30;3.00;2.00;1.17
70197;PMS5003;57582;-34.876;138.628;2023-07-13T16:55:30;1.13;1.13;0.17
70197;PMS5003;57582;-34.876;138.628;2023-07-13T16:58:31;0.70;0.60;0.00
70197;PMS5003;57582;-34.876;138.628;2023-07-13T17:01:30;3.93;3.60;2.63